sensor_id;sensor_type;location;lat;lon;timestamp;temperature;humidity
22629;DHT22;11481;53.694;9.910;2023-07-28T00:01:53;17.90;99.90
22629;DHT22;11481;53.694;9.910;2023-07-28T00:04:20;18.00;99.90
22629;DHT22;11481;53.694;9.910;2023-07-28T00:06:46;18.00;99.90
22629;DHT22;11481;53.694;9.910;2023-07-28T00:09:13;18.00;99.90
22629;DHT22;11481;53.694;9.910;2023-07-28T00:11:40;18.00;99.90
22629;DHT22;11481;53.694;9.910;2023-07-28T00:14:06;17.90;99.90
22629;DHT22;11481;53.694;9.910;2023-07-28T00:16:33;18.00;99.90
22629;DHT22;11481;53.694;9.910;2023-07-28T00:19:00;18.00;99.90
22629;DHT22;11481;53.694;9.910;2023-07-28T00:21:27;18.00;99.90
22629;DHT22;11481;53.694;9.910;2023-07-28T00:23:54;17.90;99.90
22629;DHT22;11481;53.694;9.910;2023-07-28T00:26:20;18.00;99.90
22629;DHT22;11481;53.694;9.910;2023-07-28T00:28:47;18.00;99.90
22629;DHT22;11481;53.694;9.910;2023-07-28T00:31:15;18.00;99.90
22629;DHT22;11481;53.694;9.910;2023-07-28T00:33:42;18.00;99.90
22629;DHT22;11481;53.694;9.910;2023-07-28T00:36:09;18.00;99.90
22629;DHT22;11481;53.694;9.910;2023-07-28T00:38:36;18.00;99.90
22629;DHT22;11481;53.694;9.910;2023-07-28T00:41:02;18.00;99.90
22629;DHT22;11481;53.694;9.910;2023-07-28T00:43:29;18.00;99.90
22629;DHT22;11481;53.694;9.910;2023-07-28T00:45:56;18.00;99.90
22629;DHT22;11481;53.694;9.910;2023-07-28T00:48:23;18.00;99.90
22629;DHT22;11481;53.694;9.910;2023-07-28T00:50:50;17.90;99.90
22629;DHT22;11481;53.694;9.910;2023-07-28T00:53:18;18.00;99.90
22629;DHT22;11481;53.694;9.910;2023-07-28T00:55:46;18.00;99.90
22629;DHT22;11481;53.694;9.910;2023-07-28T00:58:12;18.00;99.90
22629;DHT22;11481;53.694;9.910;2023-07-28T01:00:39;18.00;99.90
22629;DHT22;11481;53.694;9.910;2023-07-28T01:03:07;18.00;99.90
22629;DHT22;11481;53.694;9.910;2023-07-28T01:08:27;18.00;99.90
22629;DHT22;11481;53.694;9.910;2023-07-28T01:10:54;18.00;99.90
22629;DHT22;11481;53.694;9.910;2023-07-28T01:13:22;18.00;99.90
22629;DHT22;11481;53.694;9.910;2023-07-28T01:15:48;18.00;99.90
22629;DHT22;11481;53.694;9.910;2023-07-28T01:18:15;18.00;99.90
22629;DHT22;11481;53.694;9.910;2023-07-28T01:20:42;18.00;99.90
22629;DHT22;11481;53.694;9.910;2023-07-28T01:23:20;18.00;99.90
22629;DHT22;11481;53.694;9.910;2023-07-28T01:25:54;17.90;99.90
22629;DHT22;11481;53.694;9.910;2023-07-28T01:28:23;18.00;99.90
22629;DHT22;11481;53.694;9.910;2023-07-28T01:30:50;18.00;99.90
22629;DHT22;11481;53.694;9.910;2023-07-28T01:33:17;17.90;99.90
22629;DHT22;11481;53.694;9.910;2023-07-28T01:35:43;17.80;99.90
22629;DHT22;11481;53.694;9.910;2023-07-28T01:38:10;17.80;99.90
22629;DHT22;11481;53.694;9.910;2023-07-28T01:40:37;17.80;99.90
22629;DHT22;11481;53.694;9.910;2023-07-28T01:43:03;17.80;99.90
22629;DHT22;11481;53.694;9.910;2023-07-28T01:45:30;17.70;99.90
22629;DHT22;11481;53.694;9.910;2023-07-28T01:47:56;17.80;99.90
22629;DHT22;11481;53.694;9.910;2023-07-28T01:50:23;17.80;99.90
22629;DHT22;11481;53.694;9.910;2023-07-28T01:52:50;17.80;99.90
22629;DHT22;11481;53.694;9.910;2023-07-28T01:55:16;17.80;99.90
22629;DHT22;11481;53.694;9.910;2023-07-28T01:57:54;17.80;99.90
22629;DHT22;11481;53.694;9.910;2023-07-28T02:00:20;17.70;99.90
22629;DHT22;11481;53.694;9.910;2023-07-28T02:02:48;17.70;99.90
22629;DHT22;11481;53.694;9.910;2023-07-28T02:05:15;17.60;99.90
22629;DHT22;11481;53.694;9.910;2023-07-28T02:07:42;17.60;99.90
22629;DHT22;11481;53.694;9.910;2023-07-28T02:10:09;17.70;99.90
22629;DHT22;11481;53.694;9.910;2023-07-28T02:12:37;17.60;99.90
22629;DHT22;11481;53.694;9.910;2023-07-28T02:15:07;17.60;99.90
22629;DHT22;11481;53.694;9.910;2023-07-28T02:17:34;17.60;99.90
22629;DHT22;11481;53.694;9.910;2023-07-28T02:20:01;17.50;99.90
22629;DHT22;11481;53.694;9.910;2023-07-28T02:22:30;17.50;99.90
22629;DHT22;11481;53.694;9.910;2023-07-28T02:24:56;17.40;99.90
22629;DHT22;11481;53.694;9.910;2023-07-28T02:27:26;17.40;99.90
22629;DHT22;11481;53.694;9.910;2023-07-28T02:29:53;17.40;99.90
22629;DHT22;11481;53.694;9.910;2023-07-28T02:32:20;17.40;99.90
22629;DHT22;11481;53.694;9.910;2023-07-28T02:34:47;17.40;99.90
22629;DHT22;11481;53.694;9.910;2023-07-28T02:37:14;17.40;99.90
22629;DHT22;11481;53.694;9.910;2023-07-28T02:39:42;17.40;99.90
22629;DHT22;11481;53.694;9.910;2023-07-28T02:42:08;17.40;99.90
22629;DHT22;11481;53.694;9.910;2023-07-28T02:44:35;17.40;99.90
22629;DHT22;11481;53.694;9.910;2023-07-28T02:47:02;17.30;99.90
22629;DHT22;11481;53.694;9.910;2023-07-28T02:49:28;17.30;99.90
22629;DHT22;11481;53.694;9.910;2023-07-28T02:51:55;17.30;99.90
22629;DHT22;11481;53.694;9.910;2023-07-28T02:59:32;17.30;99.90
22629;DHT22;11481;53.694;9.910;2023-07-28T03:01:59;17.30;99.90
22629;DHT22;11481;53.694;9.910;2023-07-28T03:04:26;17.30;99.90
22629;DHT22;11481;53.694;9.910;2023-07-28T03:06:53;17.30;99.90
22629;DHT22;11481;53.694;9.910;2023-07-28T03:09:19;17.30;99.90
22629;DHT22;11481;53.694;9.910;2023-07-28T03:11:46;17.30;99.90
22629;DHT22;11481;53.694;9.910;2023-07-28T03:14:12;17.30;99.90
22629;DHT22;11481;53.694;9.910;2023-07-28T03:16:40;17.30;99.90
22629;DHT22;11481;53.694;9.910;2023-07-28T03:19:07;17.30;99.90
22629;DHT22;11481;53.694;9.910;2023-07-28T03:21:34;17.30;99.90
22629;DHT22;11481;53.694;9.910;2023-07-28T03:24:05;17.40;99.90
22629;DHT22;11481;53.694;9.910;2023-07-28T03:26:31;17.40;99.90
22629;DHT22;11481;53.694;9.910;2023-07-28T03:28:59;17.40;99.90
22629;DHT22;11481;53.694;9.910;2023-07-28T03:31:25;17.40;99.90
22629;DHT22;11481;53.694;9.910;2023-07-28T03:33:52;17.40;99.90
22629;DHT22;11481;53.694;9.910;2023-07-28T03:36:19;17.40;99.90
22629;DHT22;11481;53.694;9.910;2023-07-28T03:38:46;17.40;99.90
22629;DHT22;11481;53.694;9.910;2023-07-28T03:41:13;17.40;99.90
22629;DHT22;11481;53.694;9.910;2023-07-28T03:43:41;17.30;99.90
22629;DHT22;11481;53.694;9.910;2023-07-28T03:46:08;17.30;99.90
22629;DHT22;11481;53.694;9.910;2023-07-28T03:48:34;17.40;99.90
22629;DHT22;11481;53.694;9.910;2023-07-28T03:51:01;17.40;99.90
22629;DHT22;11481;53.694;9.910;2023-07-28T03:53:28;17.30;99.90
22629;DHT22;11481;53.694;9.910;2023-07-28T03:55:55;17.30;99.90
22629;DHT22;11481;53.694;9.910;2023-07-28T03:58:25;17.30;99.90
22629;DHT22;11481;53.694;9.910;2023-07-28T04:00:52;17.30;99.90
22629;DHT22;11481;53.694;9.910;2023-07-28T04:03:20;17.40;99.90
22629;DHT22;11481;53.694;9.910;2023-07-28T04:05:46;17.30;99.90
22629;DHT22;11481;53.694;9.910;2023-07-28T04:08:13;17.30;99.90
22629;DHT22;11481;53.694;9.910;2023-07-28T04:10:40;17.30;99.90
22629;DHT22;11481;53.694;9.910;2023-07-28T04:13:07;17.30;99.90
22629;DHT22;11481;53.694;9.910;2023-07-28T04:15:34;17.30;99.90
22629;DHT22;11481;53.694;9.910;2023-07-28T04:18:02;17.20;99.90
22629;DHT22;11481;53.694;9.910;2023-07-28T04:20:28;17.30;99.90
22629;DHT22;11481;53.694;9.910;2023-07-28T04:22:55;17.30;99.90
22629;DHT22;11481;53.694;9.910;2023-07-28T04:25:22;17.30;99.90
22629;DHT22;11481;53.694;9.910;2023-07-28T04:27:49;17.30;99.90
22629;DHT22;11481;53.694;9.910;2023-07-28T04:30:15;17.40;99.90
22629;DHT22;11481;53.694;9.910;2023-07-28T04:32:42;17.40;99.90
22629;DHT22;11481;53.694;9.910;2023-07-28T04:35:09;17.40;99.90
22629;DHT22;11481;53.694;9.910;2023-07-28T04:37:36;17.40;99.90
22629;DHT22;11481;53.694;9.910;2023-07-28T04:40:02;17.40;99.90
22629;DHT22;11481;53.694;9.910;2023-07-28T04:42:30;17.50;99.90
22629;DHT22;11481;53.694;9.910;2023-07-28T04:44:56;17.40;99.90
22629;DHT22;11481;53.694;9.910;2023-07-28T04:47:23;17.50;99.90
22629;DHT22;11481;53.694;9.910;2023-07-28T04:49:50;17.50;99.90
22629;DHT22;11481;53.694;9.910;2023-07-28T04:52:16;17.50;99.90
22629;DHT22;11481;53.694;9.910;2023-07-28T04:54:43;17.50;99.90
22629;DHT22;11481;53.694;9.910;2023-07-28T04:57:10;17.60;99.90
22629;DHT22;11481;53.694;9.910;2023-07-28T04:59:39;17.60;99.90
22629;DHT22;11481;53.694;9.910;2023-07-28T05:02:06;17.60;99.90
22629;DHT22;11481;53.694;9.910;2023-07-28T05:04:33;17.60;99.90
22629;DHT22;11481;53.694;9.910;2023-07-28T05:07:00;17.70;99.90
22629;DHT22;11481;53.694;9.910;2023-07-28T05:09:26;17.70;99.90
22629;DHT22;11481;53.694;9.910;2023-07-28T05:11:54;17.80;99.90
22629;DHT22;11481;53.694;9.910;2023-07-28T05:14:21;17.80;99.90
22629;DHT22;11481;53.694;9.910;2023-07-28T05:16:48;17.90;99.90
22629;DHT22;11481;53.694;9.910;2023-07-28T05:19:15;17.90;99.90
22629;DHT22;11481;53.694;9.910;2023-07-28T05:21:41;18.00;99.90
22629;DHT22;11481;53.694;9.910;2023-07-28T05:24:08;18.00;99.90
22629;DHT22;11481;53.694;9.910;2023-07-28T05:26:35;18.10;99.90
22629;DHT22;11481;53.694;9.910;2023-07-28T05:29:01;18.10;99.90
22629;DHT22;11481;53.694;9.910;2023-07-28T05:31:28;18.10;99.90
22629;DHT22;11481;53.694;9.910;2023-07-28T05:33:55;18.10;99.90
22629;DHT22;11481;53.694;9.910;2023-07-28T05:36:22;18.10;99.90
22629;DHT22;11481;53.694;9.910;2023-07-28T05:38:49;18.00;99.90
22629;DHT22;11481;53.694;9.910;2023-07-28T05:41:16;17.90;99.90
22629;DHT22;11481;53.694;9.910;2023-07-28T05:43:43;18.00;99.90
22629;DHT22;11481;53.694;9.910;2023-07-28T05:46:09;18.00;99.90
22629;DHT22;11481;53.694;9.910;2023-07-28T05:48:36;18.00;99.90
22629;DHT22;11481;53.694;9.910;2023-07-28T05:51:03;18.00;99.90
22629;DHT22;11481;53.694;9.910;2023-07-28T05:53:29;18.00;99.90
22629;DHT22;11481;53.694;9.910;2023-07-28T05:55:56;18.10;99.90
22629;DHT22;11481;53.694;9.910;2023-07-28T05:58:22;18.00;99.90
22629;DHT22;11481;53.694;9.910;2023-07-28T06:00:49;18.00;99.90
22629;DHT22;11481;53.694;9.910;2023-07-28T06:03:16;18.00;99.90
22629;DHT22;11481;53.694;9.910;2023-07-28T06:05:43;17.90;99.90
22629;DHT22;11481;53.694;9.910;2023-07-28T06:08:10;17.90;99.90
22629;DHT22;11481;53.694;9.910;2023-07-28T06:10:37;18.00;99.90
22629;DHT22;11481;53.694;9.910;2023-07-28T06:13:04;18.00;99.90
22629;DHT22;11481;53.694;9.910;2023-07-28T06:15:31;18.00;99.90
22629;DHT22;11481;53.694;9.910;2023-07-28T06:17:58;17.90;99.90
22629;DHT22;11481;53.694;9.910;2023-07-28T06:20:24;18.00;99.90
22629;DHT22;11481;53.694;9.910;2023-07-28T06:22:51;18.00;99.90
22629;DHT22;11481;53.694;9.910;2023-07-28T06:25:18;18.10;99.90
22629;DHT22;11481;53.694;9.910;2023-07-28T06:27:44;18.10;99.90
22629;DHT22;11481;53.694;9.910;2023-07-28T06:30:11;18.10;99.90
22629;DHT22;11481;53.694;9.910;2023-07-28T06:32:38;18.10;99.90
22629;DHT22;11481;53.694;9.910;2023-07-28T06:35:05;18.20;99.90
22629;DHT22;11481;53.694;9.910;2023-07-28T06:37:35;18.20;99.90
22629;DHT22;11481;53.694;9.910;2023-07-28T06:40:03;18.10;99.90
22629;DHT22;11481;53.694;9.910;2023-07-28T06:49:23;18.30;99.90
22629;DHT22;11481;53.694;9.910;2023-07-28T06:51:50;18.50;99.90
22629;DHT22;11481;53.694;9.910;2023-07-28T06:54:17;18.60;99.90
22629;DHT22;11481;53.694;9.910;2023-07-28T06:56:43;18.60;99.90
22629;DHT22;11481;53.694;9.910;2023-07-28T06:59:10;18.70;99.90
22629;DHT22;11481;53.694;9.910;2023-07-28T07:01:44;18.80;99.90
22629;DHT22;11481;53.694;9.910;2023-07-28T07:04:11;18.90;99.90
22629;DHT22;11481;53.694;9.910;2023-07-28T07:06:37;19.00;99.90
22629;DHT22;11481;53.694;9.910;2023-07-28T07:09:04;19.10;99.90
22629;DHT22;11481;53.694;9.910;2023-07-28T07:11:32;19.10;99.90
22629;DHT22;11481;53.694;9.910;2023-07-28T07:13:59;19.10;99.90
22629;DHT22;11481;53.694;9.910;2023-07-28T07:16:26;19.00;99.90
22629;DHT22;11481;53.694;9.910;2023-07-28T07:18:53;19.00;99.90
22629;DHT22;11481;53.694;9.910;2023-07-28T07:21:19;19.10;99.90
22629;DHT22;11481;53.694;9.910;2023-07-28T07:23:46;19.10;99.90
22629;DHT22;11481;53.694;9.910;2023-07-28T07:26:14;19.10;99.90
22629;DHT22;11481;53.694;9.910;2023-07-28T07:28:40;19.10;99.90
22629;DHT22;11481;53.694;9.910;2023-07-28T07:31:14;19.20;99.90
22629;DHT22;11481;53.694;9.910;2023-07-28T07:33:41;19.20;99.90
22629;DHT22;11481;53.694;9.910;2023-07-28T07:36:15;19.30;99.90
22629;DHT22;11481;53.694;9.910;2023-07-28T07:38:43;19.40;99.90
22629;DHT22;11481;53.694;9.910;2023-07-28T07:41:13;19.30;99.90
22629;DHT22;11481;53.694;9.910;2023-07-28T07:43:42;19.30;99.90
22629;DHT22;11481;53.694;9.910;2023-07-28T07:46:09;19.30;99.90
22629;DHT22;11481;53.694;9.910;2023-07-28T07:48:35;19.30;99.90
22629;DHT22;11481;53.694;9.910;2023-07-28T07:51:02;19.20;99.90
22629;DHT22;11481;53.694;9.910;2023-07-28T07:53:29;19.20;99.90
22629;DHT22;11481;53.694;9.910;2023-07-28T07:55:56;19.10;99.90
22629;DHT22;11481;53.694;9.910;2023-07-28T07:58:22;19.10;99.90
22629;DHT22;11481;53.694;9.910;2023-07-28T08:00:49;19.20;99.90
22629;DHT22;11481;53.694;9.910;2023-07-28T08:03:16;19.20;99.90
22629;DHT22;11481;53.694;9.910;2023-07-28T08:05:42;19.30;99.90
22629;DHT22;11481;53.694;9.910;2023-07-28T08:08:09;21.40;99.90
22629;DHT22;11481;53.694;9.910;2023-07-28T08:10:36;19.50;99.90
22629;DHT22;11481;53.694;9.910;2023-07-28T08:13:05;19.60;99.90
22629;DHT22;11481;53.694;9.910;2023-07-28T08:15:31;19.60;99.90
22629;DHT22;11481;53.694;9.910;2023-07-28T08:17:58;19.70;99.90
22629;DHT22;11481;53.694;9.910;2023-07-28T08:20:25;19.70;99.90
22629;DHT22;11481;53.694;9.910;2023-07-28T08:22:52;19.60;99.90
22629;DHT22;11481;53.694;9.910;2023-07-28T08:25:19;19.60;99.90
22629;DHT22;11481;53.694;9.910;2023-07-28T08:27:45;19.60;99.90
22629;DHT22;11481;53.694;9.910;2023-07-28T08:30:12;19.60;99.90
22629;DHT22;11481;53.694;9.910;2023-07-28T08:32:39;19.60;99.90
22629;DHT22;11481;53.694;9.910;2023-07-28T08:35:06;19.70;99.90
22629;DHT22;11481;53.694;9.910;2023-07-28T08:37:35;19.90;99.90
22629;DHT22;11481;53.694;9.910;2023-07-28T08:40:02;20.10;99.90
22629;DHT22;11481;53.694;9.910;2023-07-28T08:42:36;20.20;99.90
22629;DHT22;11481;53.694;9.910;2023-07-28T08:45:04;20.30;99.90
22629;DHT22;11481;53.694;9.910;2023-07-28T08:47:32;20.30;99.90
22629;DHT22;11481;53.694;9.910;2023-07-28T08:49:59;20.40;99.90
22629;DHT22;11481;53.694;9.910;2023-07-28T08:52:25;20.40;99.90
22629;DHT22;11481;53.694;9.910;2023-07-28T08:54:52;20.30;99.90
22629;DHT22;11481;53.694;9.910;2023-07-28T08:57:19;20.30;99.90
22629;DHT22;11481;53.694;9.910;2023-07-28T08:59:47;20.30;99.90
22629;DHT22;11481;53.694;9.910;2023-07-28T09:02:17;20.20;99.90
22629;DHT22;11481;53.694;9.910;2023-07-28T09:04:47;20.30;99.90
22629;DHT22;11481;53.694;9.910;2023-07-28T09:07:14;20.30;99.90
22629;DHT22;11481;53.694;9.910;2023-07-28T09:09:41;20.30;99.90
22629;DHT22;11481;53.694;9.910;2023-07-28T09:12:08;20.50;99.90
22629;DHT22;11481;53.694;9.910;2023-07-28T09:14:36;20.70;99.90
22629;DHT22;11481;53.694;9.910;2023-07-28T09:17:08;20.60;99.90
22629;DHT22;11481;53.694;9.910;2023-07-28T09:19:55;20.60;99.90
22629;DHT22;11481;53.694;9.910;2023-07-28T09:22:23;20.70;99.90
22629;DHT22;11481;53.694;9.910;2023-07-28T09:24:50;20.60;99.90
22629;DHT22;11481;53.694;9.910;2023-07-28T09:27:25;20.60;99.90
22629;DHT22;11481;53.694;9.910;2023-07-28T09:29:54;20.60;99.90
22629;DHT22;11481;53.694;9.910;2023-07-28T09:32:31;20.80;99.90
22629;DHT22;11481;53.694;9.910;2023-07-28T09:35:10;20.70;99.90
22629;DHT22;11481;53.694;9.910;2023-07-28T09:37:41;20.70;99.90
22629;DHT22;11481;53.694;9.910;2023-07-28T09:40:09;20.70;99.90
22629;DHT22;11481;53.694;9.910;2023-07-28T09:42:39;20.90;99.90
22629;DHT22;11481;53.694;9.910;2023-07-28T09:45:07;21.10;99.90
22629;DHT22;11481;53.694;9.910;2023-07-28T09:47:54;21.20;99.90
22629;DHT22;11481;53.694;9.910;2023-07-28T09:50:23;21.20;99.90
22629;DHT22;11481;53.694;9.910;2023-07-28T09:52:54;21.30;99.90
22629;DHT22;11481;53.694;9.910;2023-07-28T09:55:24;21.20;99.90
22629;DHT22;11481;53.694;9.910;2023-07-28T09:57:52;21.20;99.90
22629;DHT22;11481;53.694;9.910;2023-07-28T10:00:21;21.20;99.90
22629;DHT22;11481;53.694;9.910;2023-07-28T10:02:49;21.10;99.90
22629;DHT22;11481;53.694;9.910;2023-07-28T10:05:17;21.20;99.90
22629;DHT22;11481;53.694;9.910;2023-07-28T10:07:45;21.20;99.90
22629;DHT22;11481;53.694;9.910;2023-07-28T10:10:14;21.10;99.90
22629;DHT22;11481;53.694;9.910;2023-07-28T10:15:16;21.10;99.90
22629;DHT22;11481;53.694;9.910;2023-07-28T10:17:45;21.00;99.90
22629;DHT22;11481;53.694;9.910;2023-07-28T10:20:37;21.00;99.90
22629;DHT22;11481;53.694;9.910;2023-07-28T10:23:12;21.10;99.90
22629;DHT22;11481;53.694;9.910;2023-07-28T10:25:40;21.10;99.90
22629;DHT22;11481;53.694;9.910;2023-07-28T10:28:32;21.20;99.90
22629;DHT22;11481;53.694;9.910;2023-07-28T10:31:02;21.30;99.90
22629;DHT22;11481;53.694;9.910;2023-07-28T10:33:33;21.20;99.90
22629;DHT22;11481;53.694;9.910;2023-07-28T10:39:13;21.30;99.90
22629;DHT22;11481;53.694;9.910;2023-07-28T10:44:29;21.30;99.90
22629;DHT22;11481;53.694;9.910;2023-07-28T10:46:57;21.40;99.90
22629;DHT22;11481;53.694;9.910;2023-07-28T10:49:25;21.40;99.90
22629;DHT22;11481;53.694;9.910;2023-07-28T10:51:52;21.30;99.90
22629;DHT22;11481;53.694;9.910;2023-07-28T10:54:19;21.30;99.90
22629;DHT22;11481;53.694;9.910;2023-07-28T10:56:47;21.20;99.90
22629;DHT22;11481;53.694;9.910;2023-07-28T10:59:15;21.20;99.90
22629;DHT22;11481;53.694;9.910;2023-07-28T11:01:43;21.40;99.90
22629;DHT22;11481;53.694;9.910;2023-07-28T11:04:17;21.20;99.90
22629;DHT22;11481;53.694;9.910;2023-07-28T11:06:49;21.20;99.90
22629;DHT22;11481;53.694;9.910;2023-07-28T11:09:18;21.40;99.90
22629;DHT22;11481;53.694;9.910;2023-07-28T11:11:46;21.60;99.90
22629;DHT22;11481;53.694;9.910;2023-07-28T11:14:15;21.50;99.90
22629;DHT22;11481;53.694;9.910;2023-07-28T11:16:42;21.50;99.90
22629;DHT22;11481;53.694;9.910;2023-07-28T11:19:12;21.60;99.90
22629;DHT22;11481;53.694;9.910;2023-07-28T11:21:41;21.70;99.90
22629;DHT22;11481;53.694;9.910;2023-07-28T11:24:09;21.80;99.90
22629;DHT22;11481;53.694;9.910;2023-07-28T11:26:37;21.80;99.90
22629;DHT22;11481;53.694;9.910;2023-07-28T11:29:04;22.10;99.90
22629;DHT22;11481;53.694;9.910;2023-07-28T11:31:31;22.00;99.90
22629;DHT22;11481;53.694;9.910;2023-07-28T11:34:00;21.90;99.90
22629;DHT22;11481;53.694;9.910;2023-07-28T11:36:29;22.00;99.90
22629;DHT22;11481;53.694;9.910;2023-07-28T11:38:59;22.20;99.90
22629;DHT22;11481;53.694;9.910;2023-07-28T11:41:26;22.20;99.90
22629;DHT22;11481;53.694;9.910;2023-07-28T11:43:54;22.30;99.90
22629;DHT22;11481;53.694;9.910;2023-07-28T11:46:35;22.40;99.90
22629;DHT22;11481;53.694;9.910;2023-07-28T11:49:21;22.60;99.90
22629;DHT22;11481;53.694;9.910;2023-07-28T11:51:53;22.70;99.90
22629;DHT22;11481;53.694;9.910;2023-07-28T11:54:22;22.70;99.90
22629;DHT22;11481;53.694;9.910;2023-07-28T11:56:50;22.60;99.90
22629;DHT22;11481;53.694;9.910;2023-07-28T11:59:19;22.70;99.90
22629;DHT22;11481;53.694;9.910;2023-07-28T12:01:56;22.80;99.90
22629;DHT22;11481;53.694;9.910;2023-07-28T12:04:27;22.90;99.90
22629;DHT22;11481;53.694;9.910;2023-07-28T12:12:46;22.80;99.90
22629;DHT22;11481;53.694;9.910;2023-07-28T12:15:27;23.10;99.90
22629;DHT22;11481;53.694;9.910;2023-07-28T12:18:04;23.10;99.90
22629;DHT22;11481;53.694;9.910;2023-07-28T12:23:15;23.50;99.90
22629;DHT22;11481;53.694;9.910;2023-07-28T12:25:45;23.70;99.90
22629;DHT22;11481;53.694;9.910;2023-07-28T12:28:13;23.80;99.90
22629;DHT22;11481;53.694;9.910;2023-07-28T12:30:42;23.90;99.90
22629;DHT22;11481;53.694;9.910;2023-07-28T12:33:10;23.80;99.90
22629;DHT22;11481;53.694;9.910;2023-07-28T12:35:40;23.70;99.90
22629;DHT22;11481;53.694;9.910;2023-07-28T12:38:09;23.50;99.90
22629;DHT22;11481;53.694;9.910;2023-07-28T12:40:39;23.60;99.90
22629;DHT22;11481;53.694;9.910;2023-07-28T12:43:08;23.30;99.90
22629;DHT22;11481;53.694;9.910;2023-07-28T12:45:56;23.30;99.90
22629;DHT22;11481;53.694;9.910;2023-07-28T12:48:26;23.40;99.90
22629;DHT22;11481;53.694;9.910;2023-07-28T12:50:53;23.40;99.90
22629;DHT22;11481;53.694;9.910;2023-07-28T12:53:22;23.60;99.90
22629;DHT22;11481;53.694;9.910;2023-07-28T12:55:49;23.50;99.90
22629;DHT22;11481;53.694;9.910;2023-07-28T12:58:19;23.40;99.90
22629;DHT22;11481;53.694;9.910;2023-07-28T13:00:49;23.50;99.90
22629;DHT22;11481;53.694;9.910;2023-07-28T13:03:18;23.50;99.90
22629;DHT22;11481;53.694;9.910;2023-07-28T13:05:46;23.50;99.90
22629;DHT22;11481;53.694;9.910;2023-07-28T13:08:15;23.60;99.90
22629;DHT22;11481;53.694;9.910;2023-07-28T13:10:41;23.40;99.90
22629;DHT22;11481;53.694;9.910;2023-07-28T13:13:12;23.30;99.90
22629;DHT22;11481;53.694;9.910;2023-07-28T13:15:40;23.20;99.90
22629;DHT22;11481;53.694;9.910;2023-07-28T13:18:07;23.40;99.90
22629;DHT22;11481;53.694;9.910;2023-07-28T13:20:34;23.20;99.90
22629;DHT22;11481;53.694;9.910;2023-07-28T13:23:00;23.50;99.90
22629;DHT22;11481;53.694;9.910;2023-07-28T13:25:27;23.20;99.90
22629;DHT22;11481;53.694;9.910;2023-07-28T13:27:54;23.20;99.90
22629;DHT22;11481;53.694;9.910;2023-07-28T13:30:21;23.30;99.90
22629;DHT22;11481;53.694;9.910;2023-07-28T13:32:49;23.50;99.90
22629;DHT22;11481;53.694;9.910;2023-07-28T13:35:16;23.60;99.90
22629;DHT22;11481;53.694;9.910;2023-07-28T13:37:43;23.50;99.90
22629;DHT22;11481;53.694;9.910;2023-07-28T13:40:10;23.30;99.90
22629;DHT22;11481;53.694;9.910;2023-07-28T13:42:39;23.20;99.90
22629;DHT22;11481;53.694;9.910;2023-07-28T13:45:06;23.00;99.90
22629;DHT22;11481;53.694;9.910;2023-07-28T13:47:34;22.80;99.90
22629;DHT22;11481;53.694;9.910;2023-07-28T13:50:01;22.90;99.90
22629;DHT22;11481;53.694;9.910;2023-07-28T13:52:27;22.80;99.90
22629;DHT22;11481;53.694;9.910;2023-07-28T13:54:54;22.60;99.90
22629;DHT22;11481;53.694;9.910;2023-07-28T13:57:24;22.50;99.90
22629;DHT22;11481;53.694;9.910;2023-07-28T13:59:51;22.20;99.90
22629;DHT22;11481;53.694;9.910;2023-07-28T14:02:17;22.20;99.90
22629;DHT22;11481;53.694;9.910;2023-07-28T14:04:47;22.40;99.90
22629;DHT22;11481;53.694;9.910;2023-07-28T14:07:14;22.30;99.90
22629;DHT22;11481;53.694;9.910;2023-07-28T14:09:41;22.40;99.90
22629;DHT22;11481;53.694;9.910;2023-07-28T14:12:08;22.50;99.90
22629;DHT22;11481;53.694;9.910;2023-07-28T14:14:34;22.40;99.90
22629;DHT22;11481;53.694;9.910;2023-07-28T14:17:01;22.50;99.90
22629;DHT22;11481;53.694;9.910;2023-07-28T14:19:28;22.50;99.90
22629;DHT22;11481;53.694;9.910;2023-07-28T14:21:54;22.40;99.90
22629;DHT22;11481;53.694;9.910;2023-07-28T14:24:21;22.30;99.90
22629;DHT22;11481;53.694;9.910;2023-07-28T14:26:48;22.20;99.90
22629;DHT22;11481;53.694;9.910;2023-07-28T14:29:14;22.20;99.90
22629;DHT22;11481;53.694;9.910;2023-07-28T14:31:41;22.30;99.90
22629;DHT22;11481;53.694;9.910;2023-07-28T14:34:07;22.10;99.90
22629;DHT22;11481;53.694;9.910;2023-07-28T14:36:34;22.10;99.90
22629;DHT22;11481;53.694;9.910;2023-07-28T14:39:02;22.00;99.90
22629;DHT22;11481;53.694;9.910;2023-07-28T14:41:29;22.10;99.90
22629;DHT22;11481;53.694;9.910;2023-07-28T14:43:55;22.10;99.90
22629;DHT22;11481;53.694;9.910;2023-07-28T14:46:22;22.00;99.90
22629;DHT22;11481;53.694;9.910;2023-07-28T14:48:52;22.10;99.90
22629;DHT22;11481;53.694;9.910;2023-07-28T14:51:19;22.10;99.90
22629;DHT22;11481;53.694;9.910;2023-07-28T14:53:46;22.20;99.90
22629;DHT22;11481;53.694;9.910;2023-07-28T14:56:15;22.30;99.90
22629;DHT22;11481;53.694;9.910;2023-07-28T14:58:42;22.30;99.90
22629;DHT22;11481;53.694;9.910;2023-07-28T15:01:12;22.40;99.90
22629;DHT22;11481;53.694;9.910;2023-07-28T15:03:39;22.70;99.90
22629;DHT22;11481;53.694;9.910;2023-07-28T15:06:09;22.90;99.90
22629;DHT22;11481;53.694;9.910;2023-07-28T15:08:36;23.20;99.90
22629;DHT22;11481;53.694;9.910;2023-07-28T15:11:02;23.50;99.90
22629;DHT22;11481;53.694;9.910;2023-07-28T15:13:29;23.70;99.90
22629;DHT22;11481;53.694;9.910;2023-07-28T15:15:56;23.50;99.90
22629;DHT22;11481;53.694;9.910;2023-07-28T15:18:23;23.40;99.90
22629;DHT22;11481;53.694;9.910;2023-07-28T15:20:49;23.20;99.90
22629;DHT22;11481;53.694;9.910;2023-07-28T15:23:16;23.10;99.90
22629;DHT22;11481;53.694;9.910;2023-07-28T15:25:43;23.20;99.90
22629;DHT22;11481;53.694;9.910;2023-07-28T15:28:13;23.20;99.90
22629;DHT22;11481;53.694;9.910;2023-07-28T15:30:40;23.10;99.90
22629;DHT22;11481;53.694;9.910;2023-07-28T15:33:12;22.90;99.90
22629;DHT22;11481;53.694;9.910;2023-07-28T15:35:40;22.70;99.90
22629;DHT22;11481;53.694;9.910;2023-07-28T15:38:06;22.70;99.90
22629;DHT22;11481;53.694;9.910;2023-07-28T15:40:33;22.80;99.90
22629;DHT22;11481;53.694;9.910;2023-07-28T15:43:00;22.90;99.90
22629;DHT22;11481;53.694;9.910;2023-07-28T15:45:26;23.10;99.90
22629;DHT22;11481;53.694;9.910;2023-07-28T15:47:53;23.40;99.90
22629;DHT22;11481;53.694;9.910;2023-07-28T15:50:20;23.70;99.90
22629;DHT22;11481;53.694;9.910;2023-07-28T15:52:47;24.10;99.90
22629;DHT22;11481;53.694;9.910;2023-07-28T15:55:15;24.20;99.90
22629;DHT22;11481;53.694;9.910;2023-07-28T15:57:41;24.20;99.90
22629;DHT22;11481;53.694;9.910;2023-07-28T16:00:09;24.30;99.90
22629;DHT22;11481;53.694;9.910;2023-07-28T16:02:36;24.40;99.90
22629;DHT22;11481;53.694;9.910;2023-07-28T16:05:04;24.40;99.90
22629;DHT22;11481;53.694;9.910;2023-07-28T16:07:31;24.50;99.90